Time;durP1;ratioP1;P1;durP2;ratioP2;P2;SDS_P1;SDS_P2;PMS_P1;PMS_P2;Temp;Humidity;BMP_temperature;BMP_pressure;BME280_temperature;BME280_humidity;BME280_pressure;Samples;Min_cycle;Max_cycle;Signal;HPM_P1;HPM_P2
2021/12/01 00:00:36;;;;;;;0.50;0.30;;;6.60;99.90;;;;;;5094034;28;20028;-61
2021/12/01 00:03:02;;;;;;;0.50;0.28;;;6.60;99.90;;;;;;5094278;28;20023;-61
2021/12/01 00:05:29;;;;;;;0.65;0.52;;;6.60;99.90;;;;;;5075865;28;20084;-61
2021/12/01 00:07:56;;;;;;;0.43;0.30;;;6.60;99.90;;;;;;5075695;28;20531;-60
2021/12/01 00:10:24;;;;;;;0.30;0.20;;;6.60;99.90;;;;;;5075782;28;20028;-61
2021/12/01 00:12:51;;;;;;;0.13;0.13;;;6.60;99.90;;;;;;5094417;28;20028;-61
2021/12/01 00:15:17;;;;;;;0.90;0.30;;;6.60;99.90;;;;;;5093378;28;20039;-61
2021/12/01 00:17:42;;;;;;;0.57;0.40;;;6.60;99.90;;;;;;5075473;28;20028;-61
2021/12/01 00:20:16;;;;;;;0.93;0.52;;;6.60;99.90;;;;;;5094508;28;20055;-60
2021/12/01 00:22:42;;;;;;;0.47;0.20;;;6.60;99.90;;;;;;5076152;28;20478;-61
2021/12/01 00:25:10;;;;;;;2.55;0.30;;;6.60;99.90;;;;;;5094115;28;20039;-61
2021/12/01 00:27:36;;;;;;;1.05;0.77;;;6.60;99.90;;;;;;5093706;28;20220;-60
2021/12/01 00:30:02;;;;;;;0.80;0.50;;;6.60;99.90;;;;;;5094255;28;20359;-62
2021/12/01 00:32:28;;;;;;;0.60;0.40;;;6.50;99.90;;;;;;5075195;28;20028;-61
2021/12/01 00:34:54;;;;;;;0.50;0.30;;;6.50;99.90;;;;;;5093874;28;20103;-61
2021/12/01 00:37:20;;;;;;;0.50;0.30;;;6.50;99.90;;;;;;5092912;28;20111;-61
2021/12/01 00:39:46;;;;;;;0.30;0.30;;;6.40;99.90;;;;;;5075595;28;20058;-60
2021/12/01 00:42:12;;;;;;;1.05;0.50;;;6.50;99.90;;;;;;5093821;28;20434;-61
2021/12/01 00:44:46;;;;;;;2.22;0.90;;;6.50;99.90;;;;;;5075063;28;20024;-60
2021/12/01 00:47:13;;;;;;;0.60;0.35;;;6.40;99.90;;;;;;5094008;28;20067;-61
2021/12/01 00:49:39;;;;;;;2.38;0.50;;;6.30;99.90;;;;;;5074809;28;20130;-60
2021/12/01 00:52:04;;;;;;;0.95;0.73;;;6.30;99.90;;;;;;5093354;28;20051;-60
2021/12/01 00:54:30;;;;;;;1.08;0.90;;;6.30;99.90;;;;;;5093181;28;20101;-61
2021/12/01 00:56:56;;;;;;;0.73;0.65;;;6.30;99.90;;;;;;5093481;28;20351;-60
2021/12/01 00:59:22;;;;;;;1.85;0.70;;;6.30;99.90;;;;;;5074629;28;20035;-61
2021/12/01 01:01:48;;;;;;;1.45;0.90;;;6.20;99.90;;;;;;5093299;28;20024;-60
2021/12/01 01:04:14;;;;;;;0.93;0.90;;;6.20;99.90;;;;;;5075016;28;20111;-60
2021/12/01 01:06:39;;;;;;;1.52;1.05;;;6.10;99.90;;;;;;5092552;28;20043;-61
2021/12/01 01:09:07;;;;;;;1.65;1.10;;;6.10;99.90;;;;;;5093135;28;20453;-60
2021/12/01 01:17:08;;;;;;;1.17;1.00;;;6.20;99.90;;;;;;5093174;28;20035;-60
2021/12/01 01:19:36;;;;;;;1.10;0.98;;;6.10;99.90;;;;;;5074081;28;20485;-61
2021/12/01 01:22:05;;;;;;;1.55;1.23;;;6.10;99.90;;;;;;5092548;28;20028;-62
2021/12/01 01:24:31;;;;;;;0.93;0.70;;;6.10;99.90;;;;;;5074284;28;20032;-62
2021/12/01 01:26:57;;;;;;;1.50;1.10;;;6.10;99.90;;;;;;5074353;28;20046;-61
2021/12/01 01:29:24;;;;;;;2.20;0.90;;;6.10;99.90;;;;;;5092299;28;20447;-61
2021/12/01 01:31:53;;;;;;;1.00;0.73;;;6.10;99.90;;;;;;5092777;28;20064;-61
2021/12/01 01:34:20;;;;;;;2.67;0.90;;;6.10;99.90;;;;;;5092592;28;20407;-78
2021/12/01 01:36:46;;;;;;;0.95;0.90;;;6.10;99.90;;;;;;5092554;28;20050;-61
2021/12/01 01:39:11;;;;;;;1.10;0.70;;;6.10;99.90;;;;;;5057947;28;20032;-61
2021/12/01 01:41:37;;;;;;;1.52;0.90;;;6.00;99.90;;;;;;5092186;28;20039;-62
2021/12/01 01:44:03;;;;;;;0.80;0.70;;;6.10;99.90;;;;;;5074499;28;20024;-60
2021/12/01 01:46:37;;;;;;;1.23;0.80;;;6.10;99.90;;;;;;5091775;28;20039;-61
2021/12/01 01:49:09;;;;;;;2.45;0.70;;;6.10;99.90;;;;;;5092198;28;20469;-61
2021/12/01 01:51:35;;;;;;;;;;;6.10;99.90;;;;;;5092356;28;20027;-61
2021/12/01 01:54:01;;;;;;;0.68;0.55;;;6.10;99.90;;;;;;5092349;28;20372;-61
2021/12/01 01:56:27;;;;;;;0.82;0.60;;;6.20;99.90;;;;;;5091895;28;20081;-61
2021/12/01 01:58:55;;;;;;;0.70;0.50;;;6.20;99.90;;;;;;5092332;28;20035;-61
2021/12/01 02:01:43;;;;;;;2.65;0.77;;;6.10;99.90;;;;;;5092414;28;20129;-61
2021/12/01 02:04:13;;;;;;;3.58;0.50;;;6.10;99.90;;;;;;5092288;28;20381;-60
2021/12/01 02:06:39;;;;;;;0.60;0.60;;;6.10;99.90;;;;;;5091802;28;20035;-60
2021/12/01 02:09:07;;;;;;;0.82;0.77;;;6.10;99.90;;;;;;5074049;28;20028;-60
2021/12/01 02:11:34;;;;;;;0.73;0.30;;;6.10;99.90;;;;;;5091543;28;20027;-61
2021/12/01 02:14:00;;;;;;;1.17;0.45;;;6.10;99.90;;;;;;5074001;28;20442;-60
2021/12/01 02:16:26;;;;;;;1.85;0.25;;;6.00;99.90;;;;;;5091368;28;20454;-60
2021/12/01 02:18:52;;;;;;;2.08;0.40;;;6.00;99.90;;;;;;5092013;28;20097;-61
2021/12/01 02:21:28;;;;;;;0.35;0.32;;;6.00;99.90;;;;;;5092072;28;20446;-60
2021/12/01 02:23:58;;;;;;;0.63;0.30;;;6.00;99.90;;;;;;5073610;28;20048;-59
2021/12/01 02:26:25;;;;;;;0.40;0.30;;;6.00;99.90;;;;;;5091382;28;20460;-66
2021/12/01 02:28:53;;;;;;;1.65;0.40;;;6.00;99.90;;;;;;5073852;28;20032;-61
2021/12/01 02:31:20;;;;;;;0.77;0.50;;;6.00;99.90;;;;;;5073673;28;20035;-61
2021/12/01 02:33:45;;;;;;;2.58;0.30;;;6.00;99.90;;;;;;5091332;28;20028;-61
2021/12/01 02:36:13;;;;;;;0.52;0.25;;;6.00;99.90;;;;;;5073897;28;20028;-60
2021/12/01 02:38:42;;;;;;;0.55;0.28;;;6.00;99.90;;;;;;5073117;28;20032;-60
2021/12/01 02:41:11;;;;;;;0.30;0.20;;;6.00;99.90;;;;;;5091422;28;20397;-60
2021/12/01 02:43:38;;;;;;;0.28;0.17;;;6.00;99.90;;;;;;5073021;28;20355;-60
2021/12/01 02:46:04;;;;;;;0.35;0.13;;;6.00;99.90;;;;;;5073414;28;20050;-60
2021/12/01 02:48:30;;;;;;;0.68;0.20;;;6.10;99.90;;;;;;5091097;28;20043;-61
2021/12/01 02:50:56;;;;;;;7.55;0.73;;;6.00;99.90;;;;;;5091448;28;20035;-60
2021/12/01 02:53:24;;;;;;;0.50;0.20;;;6.10;99.90;;;;;;5073471;28;20047;-60
2021/12/01 02:55:56;;;;;;;0.05;0.00;;;6.00;99.90;;;;;;5091359;28;20472;-61
2021/12/01 02:58:23;;;;;;;0.43;0.20;;;6.00;99.90;;;;;;5091624;28;20024;-61
2021/12/01 03:00:50;;;;;;;0.43;0.20;;;6.00;99.90;;;;;;5092856;28;20104;-60
2021/12/01 03:03:16;;;;;;;0.75;0.20;;;6.00;99.90;;;;;;5077256;28;20024;-60
2021/12/01 03:05:46;;;;;;;0.63;0.30;;;6.10;99.90;;;;;;5059924;28;20450;-60
2021/12/01 03:08:17;;;;;;;0.55;0.20;;;6.00;99.90;;;;;;5095538;28;20036;-61
2021/12/01 03:10:46;;;;;;;0.30;0.17;;;6.10;99.90;;;;;;5076494;28;20073;-60
2021/12/01 03:13:12;;;;;;;1.67;0.52;;;6.10;99.90;;;;;;5095215;28;20089;-60
2021/12/01 03:15:38;;;;;;;0.30;0.20;;;6.10;99.90;;;;;;5076428;28;20055;-60
2021/12/01 03:18:04;;;;;;;0.68;0.40;;;6.00;99.90;;;;;;5094874;28;20043;-60
2021/12/01 03:20:29;;;;;;;0.73;0.30;;;6.10;99.90;;;;;;5094392;28;20115;-61
2021/12/01 03:22:55;;;;;;;0.70;0.30;;;6.10;99.90;;;;;;5095095;28;20058;-60
2021/12/01 03:25:22;;;;;;;0.95;0.40;;;6.10;99.90;;;;;;5077161;28;20024;-62
2021/12/01 03:27:48;;;;;;;1.10;0.30;;;6.10;99.90;;;;;;5094679;28;20145;-60
2021/12/01 03:30:14;;;;;;;0.70;0.43;;;6.10;99.90;;;;;;5076956;28;20028;-60
2021/12/01 03:32:41;;;;;;;1.27;0.47;;;6.10;99.90;;;;;;5094332;28;20090;-60
2021/12/01 03:35:10;;;;;;;0.57;0.57;;;6.20;99.90;;;;;;5076853;28;20441;-60
2021/12/01 03:37:36;;;;;;;1.33;0.70;;;6.10;99.90;;;;;;5094688;28;20020;-61
2021/12/01 03:40:03;;;;;;;0.60;0.50;;;6.10;99.90;;;;;;5076658;28;20028;-61
2021/12/01 03:42:29;;;;;;;1.05;0.55;;;6.10;99.90;;;;;;5094490;28;20032;-59
2021/12/01 03:44:56;;;;;;;0.80;0.70;;;6.10;99.90;;;;;;5094609;28;20465;-61
2021/12/01 03:47:22;;;;;;;2.85;1.00;;;6.10;99.90;;;;;;5076430;28;20127;-59
2021/12/01 03:49:48;;;;;;;1.85;1.50;;;6.00;99.90;;;;;;5094171;28;20043;-60
2021/12/01 03:52:16;;;;;;;1.67;1.45;;;6.00;99.90;;;;;;5094457;28;20032;-61
2021/12/01 03:54:43;;;;;;;2.45;1.20;;;6.00;99.90;;;;;;5094082;28;20335;-61
2021/12/01 03:57:09;;;;;;;1.85;1.42;;;6.00;99.90;;;;;;5076543;28;20105;-60
2021/12/01 03:59:35;;;;;;;2.00;1.77;;;5.90;99.90;;;;;;5094151;28;20449;-60
2021/12/01 04:02:00;;;;;;;1.90;1.65;;;5.90;99.90;;;;;;5094324;28;20069;-60
2021/12/01 04:04:26;;;;;;;4.72;2.53;;;5.90;99.90;;;;;;5087440;28;20028;-61
2021/12/01 04:06:52;;;;;;;2.97;2.60;;;5.90;99.90;;;;;;5094669;28;20103;-61
2021/12/01 04:09:18;;;;;;;2.75;2.05;;;5.80;99.90;;;;;;5095312;28;20024;-60
2021/12/01 04:11:43;;;;;;;2.55;2.35;;;5.80;99.90;;;;;;5093430;28;20483;-60
2021/12/01 04:14:09;;;;;;;3.17;1.88;;;5.80;99.90;;;;;;5094124;28;20031;-60
2021/12/01 04:16:35;;;;;;;2.20;1.95;;;5.80;99.90;;;;;;5093480;28;20089;-60
2021/12/01 04:19:00;;;;;;;3.75;2.47;;;5.80;99.90;;;;;;5093818;28;20166;-60
2021/12/01 04:21:27;;;;;;;2.85;2.63;;;5.80;99.90;;;;;;5093725;28;20110;-60
2021/12/01 04:23:54;;;;;;;3.63;2.38;;;5.80;99.90;;;;;;5075053;28;20044;-61
2021/12/01 04:26:23;;;;;;;5.15;2.50;;;5.70;99.90;;;;;;5093982;28;20164;-60
2021/12/01 04:28:50;;;;;;;3.33;2.15;;;5.80;99.90;;;;;;5075371;28;20028;-61
2021/12/01 04:31:16;;;;;;;3.92;2.50;;;5.70;99.90;;;;;;5075505;28;20024;-61
2021/12/01 04:33:41;;;;;;;2.80;2.50;;;5.80;99.90;;;;;;5075198;28;20027;-60
2021/12/01 04:36:08;;;;;;;4.55;2.55;;;5.80;99.90;;;;;;5094050;28;20024;-61
2021/12/01 04:38:34;;;;;;;6.15;3.08;;;5.80;99.90;;;;;;5093222;28;20055;-61
2021/12/01 04:41:00;;;;;;;4.35;2.63;;;5.80;99.90;;;;;;5093500;28;20402;-62
2021/12/01 04:43:25;;;;;;;3.30;2.10;;;5.90;99.90;;;;;;5093796;28;20051;-61
2021/12/01 04:45:58;;;;;;;1.60;1.50;;;5.90;99.90;;;;;;5093228;28;20043;-60
2021/12/01 04:48:25;;;;;;;3.58;2.53;;;5.90;99.90;;;;;;5093438;28;20366;-60
2021/12/01 04:50:50;;;;;;;2.92;2.28;;;5.90;99.90;;;;;;5092839;28;20127;-60
2021/12/01 04:53:16;;;;;;;2.90;2.03;;;5.90;99.90;;;;;;5093081;28;20429;-60
2021/12/01 04:55:42;;;;;;;5.93;2.63;;;5.90;99.90;;;;;;5092745;28;20107;-60
2021/12/01 04:58:07;;;;;;;2.10;1.90;;;5.90;99.90;;;;;;5092795;28;20063;-60
2021/12/01 05:00:35;;;;;;;2.88;2.13;;;6.00;99.90;;;;;;5092501;28;20032;-61
2021/12/01 05:03:01;;;;;;;4.03;2.40;;;5.90;99.90;;;;;;5093037;28;20381;-60
2021/12/01 05:05:27;;;;;;;2.75;2.17;;;6.00;99.90;;;;;;5093015;28;20021;-61
2021/12/01 05:07:53;;;;;;;2.63;2.25;;;6.00;99.90;;;;;;5092568;28;20032;-62
2021/12/01 05:10:19;;;;;;;3.15;2.20;;;6.00;99.90;;;;;;5093367;28;20103;-61
2021/12/01 05:12:45;;;;;;;4.85;2.00;;;6.00;99.90;;;;;;5092082;28;20025;-60
2021/12/01 05:15:11;;;;;;;3.00;2.10;;;6.10;99.90;;;;;;5066058;28;20024;-60
2021/12/01 05:17:37;;;;;;;2.45;1.70;;;6.10;99.90;;;;;;5054570;28;20028;-60
2021/12/01 05:20:04;;;;;;;3.58;3.05;;;6.10;99.90;;;;;;5072195;28;20154;-60
2021/12/01 05:22:30;;;;;;;2.75;2.45;;;6.10;99.90;;;;;;5072417;28;20059;-60
2021/12/01 05:24:56;;;;;;;2.75;1.90;;;6.10;99.90;;;;;;5070801;28;20024;-61
2021/12/01 05:27:22;;;;;;;3.00;1.95;;;6.20;99.90;;;;;;5054366;28;20020;-59
2021/12/01 05:29:48;;;;;;;2.85;1.80;;;6.20;99.90;;;;;;5091008;28;20028;-60
2021/12/01 05:32:15;;;;;;;2.75;1.67;;;6.20;99.90;;;;;;5070143;28;20074;-60
2021/12/01 05:34:40;;;;;;;2.40;1.45;;;6.20;99.90;;;;;;5071803;28;20108;-60
2021/12/01 05:37:06;;;;;;;2.80;1.73;;;6.30;99.90;;;;;;5070557;28;20112;-60
2021/12/01 05:39:32;;;;;;;2.83;1.98;;;6.30;99.90;;;;;;5081475;28;20039;-60
2021/12/01 05:41:59;;;;;;;4.10;1.30;;;6.30;99.90;;;;;;5091487;28;20572;-62
2021/12/01 05:44:25;;;;;;;1.77;1.33;;;6.40;99.90;;;;;;5092435;28;20046;-62
2021/12/01 05:46:50;;;;;;;2.05;1.27;;;6.30;99.90;;;;;;5091730;28;20135;-61
2021/12/01 05:49:17;;;;;;;2.10;1.60;;;6.40;99.90;;;;;;5091829;28;20543;-62
2021/12/01 05:51:43;;;;;;;2.08;1.40;;;6.30;99.90;;;;;;5056426;28;20236;-60
2021/12/01 05:54:09;;;;;;;2.58;1.35;;;6.40;99.90;;;;;;5086448;28;20374;-60
2021/12/01 05:56:35;;;;;;;2.70;1.77;;;6.40;99.90;;;;;;5053743;28;20024;-72
2021/12/01 05:59:01;;;;;;;3.17;1.42;;;6.30;99.90;;;;;;5060601;28;20043;-61
2021/12/01 06:01:26;;;;;;;3.22;2.15;;;6.40;99.90;;;;;;5070051;28;20028;-61
2021/12/01 06:03:52;;;;;;;1.33;1.10;;;6.40;99.90;;;;;;5083579;28;20099;-61
2021/12/01 06:06:18;;;;;;;1.50;1.25;;;6.40;99.90;;;;;;5080148;28;20029;-61
2021/12/01 06:08:44;;;;;;;3.65;1.60;;;6.30;99.90;;;;;;5053090;28;20036;-62
2021/12/01 06:11:09;;;;;;;1.63;1.25;;;6.40;99.90;;;;;;5071308;28;20435;-62
2021/12/01 06:13:36;;;;;;;2.83;2.08;;;6.40;99.90;;;;;;5071761;28;20074;-61
2021/12/01 06:16:03;;;;;;;1.50;1.35;;;6.40;99.90;;;;;;5071187;28;20054;-61
2021/12/01 06:18:30;;;;;;;2.15;1.30;;;6.30;99.90;;;;;;5071105;28;20036;-62
2021/12/01 06:20:57;;;;;;;2.08;1.83;;;6.30;99.90;;;;;;5052767;28;20027;-60
2021/12/01 06:23:23;;;;;;;4.88;2.22;;;6.40;99.90;;;;;;5071398;28;20398;-61
2021/12/01 06:25:49;;;;;;;2.83;1.75;;;6.40;99.90;;;;;;5081771;28;20086;-61
2021/12/01 06:28:15;;;;;;;2.95;1.60;;;6.40;99.90;;;;;;5062527;28;20051;-61
2021/12/01 06:30:41;;;;;;;2.78;1.88;;;6.40;99.90;;;;;;5077168;28;20473;-62
2021/12/01 06:33:07;;;;;;;4.50;2.28;;;6.50;99.90;;;;;;5073376;28;20028;-60
2021/12/01 06:35:34;;;;;;;2.40;1.58;;;6.40;99.90;;;;;;5075257;28;20032;-61
2021/12/01 06:38:00;;;;;;;5.28;1.77;;;6.50;99.90;;;;;;5076786;28;20032;-61
2021/12/01 06:40:26;;;;;;;4.35;2.05;;;6.50;99.90;;;;;;5079054;28;20458;-62
2021/12/01 06:42:53;;;;;;;3.22;1.65;;;6.50;99.90;;;;;;5056664;28;20024;-61
2021/12/01 06:45:19;;;;;;;2.67;1.83;;;6.50;99.90;;;;;;5057092;28;20040;-62
2021/12/01 06:47:46;;;;;;;3.83;1.98;;;6.50;99.90;;;;;;5074655;28;20024;-62
2021/12/01 06:50:12;;;;;;;3.08;1.98;;;6.60;99.90;;;;;;5056743;28;20033;-61
2021/12/01 06:52:39;;;;;;;4.68;1.65;;;6.60;99.90;;;;;;5074515;28;20113;-77
2021/12/01 06:55:07;;;;;;;5.05;2.00;;;6.60;99.90;;;;;;5074958;28;20082;-61
2021/12/01 06:57:33;;;;;;;2.55;1.80;;;6.60;99.90;;;;;;5056853;28;20059;-61
2021/12/01 06:59:59;;;;;;;9.73;3.30;;;6.60;99.90;;;;;;5074007;28;20040;-61
2021/12/01 07:02:25;;;;;;;3.53;1.67;;;6.60;99.90;;;;;;5079569;28;20457;-61
2021/12/01 07:04:51;;;;;;;2.67;1.73;;;6.60;99.90;;;;;;5064199;28;20082;-61
2021/12/01 07:07:16;;;;;;;3.33;1.63;;;6.70;99.90;;;;;;5084914;28;20039;-61
2021/12/01 07:09:45;;;;;;;3.05;1.85;;;6.60;99.90;;;;;;5075516;28;20028;-62
2021/12/01 07:12:12;;;;;;;5.53;1.50;;;6.70;99.90;;;;;;5075302;28;20032;-61
2021/12/01 07:14:37;;;;;;;2.97;1.73;;;6.70;99.90;;;;;;5094664;28;20031;-62
2021/12/01 07:17:04;;;;;;;4.60;2.05;;;6.70;99.90;;;;;;5094350;28;20031;-61
2021/12/01 07:19:29;;;;;;;3.42;1.40;;;6.70;99.90;;;;;;5094545;28;20036;-61
2021/12/01 07:21:55;;;;;;;2.00;1.55;;;6.70;99.90;;;;;;5093647;28;20076;-62
2021/12/01 07:24:21;;;;;;;2.28;1.77;;;6.70;99.90;;;;;;5069197;28;20049;-62
2021/12/01 07:26:47;;;;;;;3.70;1.35;;;6.80;99.90;;;;;;5073073;28;20162;-62
2021/12/01 07:29:12;;;;;;;2.42;1.25;;;8.00;99.90;;;;;;5056143;28;20024;-61
2021/12/01 07:31:38;;;;;;;2.65;1.52;;;8.50;99.90;;;;;;5055940;28;20060;-62
2021/12/01 07:34:04;;;;;;;3.58;1.23;;;8.40;99.90;;;;;;5055073;28;20100;-61
2021/12/01 07:36:30;;;;;;;2.08;1.38;;;8.10;99.90;;;;;;5073923;28;20385;-62
2021/12/01 07:38:58;;;;;;;2.15;1.45;;;8.20;99.90;;;;;;5072923;28;20086;-62
2021/12/01 07:41:24;;;;;;;2.42;1.50;;;8.20;99.90;;;;;;5073552;28;20490;-61
2021/12/01 07:43:49;;;;;;;3.08;1.48;;;8.50;99.90;;;;;;5072813;28;20099;-62
2021/12/01 07:46:15;;;;;;;4.15;1.58;;;8.60;99.90;;;;;;5059250;28;20382;-61
2021/12/01 07:48:42;;;;;;;1.63;1.20;;;8.00;99.90;;;;;;5079918;28;20047;-63
2021/12/01 07:51:07;;;;;;;2.20;0.93;;;7.40;99.90;;;;;;5073690;28;20021;-61
2021/12/01 07:53:34;;;;;;;4.70;1.65;;;7.30;99.90;;;;;;5073994;28;20480;-61
2021/12/01 07:56:02;;;;;;;2.10;0.80;;;7.20;99.90;;;;;;5073040;28;20078;-61
2021/12/01 07:58:28;;;;;;;2.38;0.88;;;7.20;99.90;;;;;;5078387;28;20037;-61
2021/12/01 08:00:54;;;;;;;1.88;0.80;;;7.20;99.90;;;;;;5079604;28;20021;-61
2021/12/01 08:03:20;;;;;;;4.18;1.90;;;7.20;99.90;;;;;;5073444;28;20024;-62
2021/12/01 08:05:46;;;;;;;2.10;1.30;;;7.20;99.90;;;;;;5073382;28;20080;-62
2021/12/01 08:08:12;;;;;;;1.92;0.82;;;7.20;99.90;;;;;;5075277;28;20168;-62
2021/12/01 08:10:37;;;;;;;1.77;1.35;;;7.20;99.90;;;;;;5075362;28;20052;-61
2021/12/01 08:13:04;;;;;;;1.55;0.95;;;7.20;99.90;;;;;;5054729;28;20036;-60
2021/12/01 08:15:31;;;;;;;1.67;1.02;;;7.10;99.90;;;;;;5077019;28;20468;-61
2021/12/01 08:17:59;;;;;;;1.75;0.75;;;7.20;99.90;;;;;;5083654;28;20077;-62
2021/12/01 08:20:25;;;;;;;3.00;0.65;;;7.10;99.90;;;;;;5059821;28;20055;-64
2021/12/01 08:22:51;;;;;;;1.33;0.95;;;7.00;99.90;;;;;;5081392;28;20125;-67
2021/12/01 08:25:17;;;;;;;3.92;0.80;;;7.10;99.90;;;;;;5062522;28;20058;-61
2021/12/01 08:27:43;;;;;;;3.40;1.02;;;7.00;99.90;;;;;;5067906;28;20021;-63
2021/12/01 08:30:09;;;;;;;1.05;0.65;;;7.00;99.90;;;;;;5081954;28;20036;-62
2021/12/01 08:32:35;;;;;;;2.65;0.60;;;7.00;99.90;;;;;;5087023;28;20060;-61
2021/12/01 08:35:01;;;;;;;2.28;1.05;;;7.10;99.90;;;;;;5074213;28;20048;-61
2021/12/01 08:37:27;;;;;;;2.25;0.68;;;7.10;99.90;;;;;;5074345;28;20020;-61
2021/12/01 08:39:53;;;;;;;1.08;0.57;;;7.10;99.90;;;;;;5084991;28;20173;-63
2021/12/01 08:42:20;;;;;;;2.47;0.65;;;7.10;99.90;;;;;;5081181;28;20512;-64
2021/12/01 08:44:48;;;;;;;1.05;0.57;;;7.10;99.90;;;;;;5083136;28;20031;-63
2021/12/01 08:47:15;;;;;;;1.90;0.63;;;7.00;99.90;;;;;;5080412;28;20060;-62
2021/12/01 08:49:41;;;;;;;0.40;0.30;;;7.00;99.90;;;;;;5081431;28;20427;-63
2021/12/01 08:52:08;;;;;;;3.13;0.77;;;7.00;99.90;;;;;;5064699;28;20024;-62
2021/12/01 08:54:34;;;;;;;1.48;0.40;;;8.00;99.90;;;;;;5080510;28;20436;-62
2021/12/01 08:57:00;;;;;;;5.40;0.82;;;7.50;99.90;;;;;;5080154;28;20032;-65
2021/12/01 08:59:26;;;;;;;2.35;0.63;;;7.30;99.90;;;;;;5074605;28;20064;-60
2021/12/01 09:01:51;;;;;;;2.17;0.40;;;7.10;99.90;;;;;;5076460;28;20065;-62
2021/12/01 09:04:19;;;;;;;2.92;0.70;;;7.00;99.90;;;;;;5080433;28;20498;-62
2021/12/01 09:06:45;;;;;;;1.23;0.70;;;7.00;99.90;;;;;;5081899;28;20139;-75
2021/12/01 09:09:18;;;;;;;1.48;0.50;;;7.00;99.90;;;;;;5076830;28;20064;-61
2021/12/01 09:11:45;;;;;;;0.68;0.40;;;7.00;99.90;;;;;;5057926;28;20122;-61
2021/12/01 09:14:11;;;;;;;1.92;0.77;;;7.00;99.90;;;;;;5079486;28;20024;-62
2021/12/01 09:16:37;;;;;;;2.05;0.85;;;7.00;99.90;;;;;;5081605;28;20020;-61
2021/12/01 09:19:02;;;;;;;1.75;0.88;;;6.90;99.90;;;;;;5086630;28;20079;-62
2021/12/01 09:21:28;;;;;;;2.13;0.70;;;6.90;99.90;;;;;;5092136;28;20071;-61
2021/12/01 09:23:54;;;;;;;2.72;1.15;;;6.90;99.90;;;;;;5091430;28;20439;-62
2021/12/01 09:26:20;;;;;;;1.25;0.55;;;6.90;99.90;;;;;;5074063;28;20024;-61
2021/12/01 09:28:46;;;;;;;3.70;0.65;;;6.90;99.90;;;;;;5092424;28;20382;-70
2021/12/01 09:31:12;;;;;;;1.10;0.90;;;6.90;99.90;;;;;;5080590;28;20440;-61
2021/12/01 09:33:38;;;;;;;1.20;0.82;;;6.80;99.90;;;;;;5071851;28;20418;-61
2021/12/01 09:36:04;;;;;;;2.05;0.82;;;6.90;99.90;;;;;;5071368;28;20067;-62
2021/12/01 09:38:30;;;;;;;3.72;0.63;;;6.90;99.90;;;;;;5071231;28;20032;-61
2021/12/01 09:40:59;;;;;;;3.22;0.57;;;7.00;99.90;;;;;;5059280;28;20036;-61
2021/12/01 09:43:28;;;;;;;1.10;0.52;;;7.00;99.90;;;;;;5091705;28;20447;-62
2021/12/01 09:45:55;;;;;;;1.17;0.60;;;7.00;99.90;;;;;;5091340;28;20445;-61
2021/12/01 09:48:22;;;;;;;1.80;0.60;;;7.00;99.90;;;;;;5091834;28;20497;-61
2021/12/01 09:50:47;;;;;;;1.50;0.93;;;7.00;99.90;;;;;;5091032;28;20028;-82
2021/12/01 09:53:14;;;;;;;0.70;0.50;;;7.10;99.90;;;;;;5091751;28;20031;-60
2021/12/01 09:55:41;;;;;;;1.15;0.50;;;7.10;99.90;;;;;;5073648;28;20028;-61
2021/12/01 09:58:13;;;;;;;2.78;1.10;;;7.00;99.90;;;;;;5088314;28;20050;-61
2021/12/01 10:00:42;;;;;;;4.43;0.70;;;7.10;99.90;;;;;;5066532;28;20024;-61
2021/12/01 10:03:08;;;;;;;0.85;0.55;;;7.10;99.90;;;;;;5075207;28;20280;-61
2021/12/01 10:05:46;;;;;;;1.35;0.82;;;7.10;99.90;;;;;;5078729;28;20500;-61
2021/12/01 10:08:27;;;;;;;1.67;0.60;;;7.10;99.90;;;;;;5071004;28;20020;-62
2021/12/01 10:10:54;;;;;;;3.15;0.73;;;7.20;99.90;;;;;;5051360;28;20025;-67
2021/12/01 10:13:31;;;;;;;4.85;0.82;;;7.20;99.90;;;;;;5057071;28;20493;-61
2021/12/01 10:16:01;;;;;;;0.93;0.30;;;7.30;99.90;;;;;;5086692;28;20043;-61
2021/12/01 10:18:28;;;;;;;0.98;0.47;;;7.30;99.90;;;;;;5091307;28;20396;-62
2021/12/01 10:21:09;;;;;;;0.85;0.45;;;7.30;99.90;;;;;;5090789;28;20043;-61
2021/12/01 10:23:37;;;;;;;0.88;0.20;;;7.30;99.90;;;;;;5072508;28;20086;-61
2021/12/01 10:26:08;;;;;;;1.52;0.45;;;7.40;99.90;;;;;;5077728;28;20050;-61
2021/12/01 10:28:39;;;;;;;2.28;0.40;;;7.40;99.90;;;;;;5091632;28;20031;-60
2021/12/01 10:31:05;;;;;;;2.35;0.50;;;7.40;99.90;;;;;;5072677;28;20028;-62
2021/12/01 10:33:31;;;;;;;1.90;0.68;;;7.40;99.90;;;;;;5069227;28;20044;-61
2021/12/01 10:36:03;;;;;;;7.43;1.67;;;7.50;99.90;;;;;;5052982;28;20028;-77
2021/12/01 10:38:32;;;;;;;2.22;0.50;;;9.50;99.90;;;;;;5053176;28;20033;-59
2021/12/01 10:41:13;;;;;;;3.50;0.60;;;9.80;99.90;;;;;;5076333;28;20028;-60
2021/12/01 10:43:48;;;;;;;1.05;0.20;;;9.40;99.90;;;;;;5090157;28;20176;-60
2021/12/01 10:46:17;;;;;;;1.40;0.88;;;8.50;99.90;;;;;;5090457;28;20040;-61
2021/12/01 10:48:58;;;;;;;1.17;0.22;;;8.30;99.90;;;;;;5072754;28;20059;-60
2021/12/01 10:51:34;;;;;;;1.00;0.35;;;8.00;99.90;;;;;;5091660;28;20024;-61
2021/12/01 10:54:00;;;;;;;3.50;0.50;;;7.70;99.90;;;;;;5072060;28;20470;-60
2021/12/01 10:56:26;;;;;;;0.65;0.30;;;7.60;99.90;;;;;;5072877;28;20024;-61
2021/12/01 10:58:51;;;;;;;0.63;0.30;;;7.70;99.90;;;;;;5090718;28;20055;-78
2021/12/01 11:01:23;;;;;;;0.95;0.40;;;7.70;99.90;;;;;;5091052;28;20458;-61
2021/12/01 11:03:50;;;;;;;;;;;7.70;99.90;;;;;;5073018;28;20036;-61
2021/12/01 11:06:20;;;;;;;1.35;0.60;;;7.70;99.90;;;;;;5090225;28;20002;-61
2021/12/01 11:08:58;;;;;;;0.77;0.50;;;7.70;99.90;;;;;;5090947;28;20066;-62
2021/12/01 11:11:33;;;;;;;2.58;0.50;;;7.80;99.90;;;;;;5090969;28;20032;-61
2021/12/01 11:14:11;;;;;;;1.15;0.40;;;7.70;99.90;;;;;;5090556;28;20020;-62
2021/12/01 11:16:38;;;;;;;2.38;0.52;;;7.70;99.90;;;;;;5072945;28;20028;-61
2021/12/01 11:19:04;;;;;;;1.23;0.52;;;7.80;99.90;;;;;;5090267;28;20389;-60
2021/12/01 11:21:30;;;;;;;2.25;0.80;;;7.80;99.90;;;;;;5074182;28;20021;-61
2021/12/01 11:23:59;;;;;;;2.10;0.65;;;7.80;99.90;;;;;;5094561;28;20055;-61
2021/12/01 11:26:27;;;;;;;5.30;1.58;;;7.80;99.90;;;;;;5094640;28;20052;-60
2021/12/01 11:29:02;;;;;;;1.75;0.63;;;7.80;99.90;;;;;;5094015;28;20051;-75
2021/12/01 11:31:32;;;;;;;10.73;1.30;;;7.80;99.90;;;;;;5094422;28;20056;-61
2021/12/01 11:34:02;;;;;;;6.22;0.50;;;7.80;99.90;;;;;;5094004;28;20034;-61
2021/12/01 11:36:31;;;;;;;1.17;0.40;;;7.90;99.90;;;;;;5076037;28;20114;-60
2021/12/01 11:39:00;;;;;;;3.20;1.02;;;7.90;99.90;;;;;;5093864;28;20491;-61
2021/12/01 11:41:28;;;;;;;0.73;0.25;;;8.00;99.90;;;;;;5076204;28;20074;-60
2021/12/01 11:43:58;;;;;;;4.03;0.60;;;8.00;99.90;;;;;;5076085;28;20126;-76
2021/12/01 11:46:24;;;;;;;2.03;0.50;;;8.00;99.90;;;;;;5094239;28;20067;-61
2021/12/01 11:48:53;;;;;;;1.38;0.30;;;8.10;99.90;;;;;;5094166;28;20032;-61
2021/12/01 11:51:29;;;;;;;2.15;0.30;;;8.10;99.90;;;;;;5075400;28;20027;-63
2021/12/01 11:54:11;;;;;;;0.80;0.43;;;8.20;99.90;;;;;;5075231;28;20047;-71
2021/12/01 11:56:39;;;;;;;0.25;0.20;;;8.20;99.90;;;;;;5076019;28;20073;-60
2021/12/01 11:59:13;;;;;;;0.63;0.30;;;8.30;99.90;;;;;;5075184;28;20549;-61
2021/12/01 12:01:42;;;;;;;2.78;0.40;;;8.40;99.90;;;;;;5060533;28;20151;-62
2021/12/01 12:04:09;;;;;;;2.15;0.35;;;8.50;99.90;;;;;;5053076;28;20025;-60
2021/12/01 12:07:05;;;;;;;1.35;0.15;;;8.60;99.90;;;;;;5053617;28;20451;-61
2021/12/01 12:09:32;;;;;;;3.53;0.30;;;8.60;99.90;;;;;;5001313;28;20045;-62
2021/12/01 12:12:02;;;;;;;1.50;0.20;;;8.70;99.90;;;;;;5038980;28;20428;-61
2021/12/01 12:14:57;;;;;;;0.43;0.20;;;8.60;99.90;;;;;;5052158;28;20025;-61
2021/12/01 12:17:35;;;;;;;2.00;0.13;;;8.70;99.90;;;;;;5052719;28;20439;-61
2021/12/01 12:20:21;;;;;;;2.20;0.20;;;8.80;99.90;;;;;;5067826;28;20099;-61
2021/12/01 12:22:48;;;;;;;1.50;0.30;;;8.70;99.90;;;;;;5074107;28;20079;-61
2021/12/01 12:25:48;;;;;;;3.70;0.20;;;8.70;99.90;;;;;;5072511;28;20470;-63
2021/12/01 12:28:31;;;;;;;0.60;0.30;;;8.80;99.90;;;;;;5073999;28;20056;-61
2021/12/01 12:31:00;;;;;;;0.30;0.20;;;8.70;99.90;;;;;;5070933;28;20065;-68
2021/12/01 12:33:28;;;;;;;1.85;0.10;;;8.80;99.90;;;;;;5070330;28;20024;-61
2021/12/01 12:36:14;;;;;;;1.83;0.47;;;8.70;99.90;;;;;;5073552;28;20409;-62
2021/12/01 12:39:08;;;;;;;0.75;0.20;;;8.70;99.90;;;;;;5055132;28;20059;-61
2021/12/01 12:42:00;;;;;;;2.72;0.25;;;8.70;99.90;;;;;;5070509;28;20123;-60
2021/12/01 12:45:00;;;;;;;2.28;0.20;;;8.70;99.90;;;;;;5072891;28;20108;-62
2021/12/01 12:47:38;;;;;;;0.60;0.20;;;8.70;99.90;;;;;;5072384;28;20497;-62
2021/12/01 12:50:14;;;;;;;1.08;0.20;;;8.70;99.90;;;;;;5053960;28;20112;-61
2021/12/01 12:52:48;;;;;;;1.00;0.55;;;8.70;99.90;;;;;;5073116;28;20416;-61
2021/12/01 12:55:23;;;;;;;1.17;0.20;;;8.80;99.90;;;;;;5054246;28;20031;-63
2021/12/01 12:57:52;;;;;;;1.48;0.32;;;8.80;99.90;;;;;;5072756;28;20033;-61
2021/12/01 13:00:22;;;;;;;0.20;0.10;;;8.80;99.90;;;;;;5054064;28;20036;-60
2021/12/01 13:02:49;;;;;;;0.32;0.10;;;8.70;99.90;;;;;;5054731;28;20385;-60
2021/12/01 13:05:33;;;;;;;0.98;0.10;;;8.80;99.90;;;;;;5054110;28;20024;-61
2021/12/01 13:07:59;;;;;;;1.88;0.13;;;8.80;99.90;;;;;;5071891;28;20115;-77